TimeAEST,TemperatureF,Dew PointF,Humidity,Sea Level PressureIn,VisibilityMPH,Wind Direction,Wind SpeedMPH,Gust SpeedMPH,PrecipitationIn,Events,Conditions,WindDirDegrees,DateUTC
12:00 AM,76,69,75,30.00,,South,5.8,,,,Overcast,170,2013-10-17 14:00:00
12:00 AM,77.0,69.8,78,29.98,6.2,South,5.8,-,N/A,,Mostly Cloudy,170,2013-10-17 14:00:00
12:30 AM,75.2,69.8,83,29.98,6.2,Calm,Calm,-,N/A,,Mostly Cloudy,0,2013-10-17 14:30:00
1:00 AM,74,71,86,29.99,,North,4.6,,,,,350,2013-10-17 15:00:00
1:00 AM,75.2,71.6,89,29.98,6.2,North,4.6,-,N/A,,Mostly Cloudy,350,2013-10-17 15:00:00
1:30 AM,73.4,71.6,94,29.98,6.2,Calm,Calm,-,N/A,,Mostly Cloudy,0,2013-10-17 15:30:00
2:00 AM,75.2,69.8,83,29.95,6.2,SSE,3.5,-,N/A,,Mostly Cloudy,150,2013-10-17 16:00:00
2:30 AM,75.2,71.6,89,29.95,6.2,SE,6.9,-,N/A,,Mostly Cloudy,130,2013-10-17 16:30:00
3:00 AM,74,71,88,29.95,,SE,9.2,,,,Overcast,140,2013-10-17 17:00:00
3:00 AM,75.2,71.6,89,29.95,6.2,SE,9.2,-,N/A,,Mostly Cloudy,140,2013-10-17 17:00:00
3:30 AM,75.2,69.8,83,29.95,6.2,SSE,5.8,-,N/A,,Mostly Cloudy,150,2013-10-17 17:30:00
4:00 AM,74,70,83,29.96,,SSE,10.4,,,,,150,2013-10-17 18:00:00
4:00 AM,73.4,69.8,88,29.95,6.2,SSE,10.4,-,N/A,,Mostly Cloudy,150,2013-10-17 18:00:00
4:30 AM,75.2,69.8,83,29.95,6.2,SSE,8.1,-,N/A,,Mostly Cloudy,160,2013-10-17 18:30:00
5:00 AM,75.2,69.8,83,29.95,6.2,SSE,9.2,-,N/A,,Mostly Cloudy,150,2013-10-17 19:00:00
5:30 AM,75.2,69.8,83,29.95,6.2,SSE,5.8,-,N/A,,Mostly Cloudy,150,2013-10-17 19:30:00
6:00 AM,75,69,77,29.97,,SSE,6.9,,,,,160,2013-10-17 20:00:00
6:00 AM,75.2,69.8,83,29.98,6.2,SSE,6.9,-,N/A,,Mostly Cloudy,160,2013-10-17 20:00:00
6:30 AM,75.2,69.8,83,29.98,6.2,South,8.1,-,N/A,,Mostly Cloudy,170,2013-10-17 20:30:00
7:00 AM,75.2,69.8,83,30.01,6.2,SSE,8.1,-,N/A,,Mostly Cloudy,150,2013-10-17 21:00:00
7:30 AM,77.0,69.8,78,30.01,6.2,SE,8.1,-,N/A,,Mostly Cloudy,130,2013-10-17 21:30:00
8:00 AM,78.8,69.8,74,30.01,6.2,SE,8.1,-,N/A,,Mostly Cloudy,140,2013-10-17 22:00:00
8:30 AM,78.8,69.8,74,30.01,6.2,SSE,9.2,-,N/A,,Mostly Cloudy,160,2013-10-17 22:30:00
9:00 AM,79,69,65,30.02,16,South,6.9,,,,Partly Cloudy,170,2013-10-17 23:00:00
9:00 AM,78.8,69.8,74,30.01,6.2,South,6.9,-,N/A,,Mostly Cloudy,170,2013-10-17 23:00:00
9:30 AM,80.6,69.8,70,30.01,6.2,South,5.8,-,N/A,,Mostly Cloudy,170,2013-10-17 23:30:00
10:00 AM,82,69,57,30.04,,SSW,3.5,,,,,210,2013-10-18 00:00:00
10:00 AM,82.4,69.8,66,30.01,6.2,SSW,3.5,-,N/A,,Mostly Cloudy,210,2013-10-18 00:00:00
10:30 AM,82.4,69.8,66,30.01,6.2,SE,4.6,-,N/A,,Scattered Clouds,140,2013-10-18 00:30:00
11:00 AM,82.4,69.8,66,30.01,6.2,NE,11.5,-,N/A,,Scattered Clouds,50,2013-10-18 01:00:00
11:30 AM,84.2,69.8,62,29.98,6.2,NE,9.2,-,N/A,,Partly Cloudy,50,2013-10-18 01:30:00
12:00 PM,84,70,55,29.99,,ENE,12.7,,,,,70,2013-10-18 02:00:00
12:00 PM,84.2,69.8,62,29.98,6.2,ENE,12.7,-,N/A,,Partly Cloudy,70,2013-10-18 02:00:00
12:30 PM,82.4,69.8,66,29.98,6.2,NE,12.7,-,N/A,,Partly Cloudy,40,2013-10-18 02:30:00
1:00 PM,85,70,53,29.97,,ENE,15.0,,,,,70,2013-10-18 03:00:00
1:00 PM,84.2,69.8,62,29.95,6.2,ENE,15.0,-,N/A,,Partly Cloudy,70,2013-10-18 03:00:00
1:30 PM,84.2,71.6,66,29.95,6.2,NE,13.8,-,N/A,,Partly Cloudy,50,2013-10-18 03:30:00
2:00 PM,84.2,69.8,62,29.92,6.2,ENE,15.0,-,N/A,,Scattered Clouds,60,2013-10-18 04:00:00
2:30 PM,84.2,69.8,62,29.92,6.2,NE,15.0,-,N/A,,Partly Cloudy,50,2013-10-18 04:30:00
3:00 PM,84,70,54,29.92,19,ENE,13.8,,,,Partly Cloudy,60,2013-10-18 05:00:00
3:00 PM,84.2,69.8,62,29.92,6.2,ENE,13.8,-,N/A,,Scattered Clouds,60,2013-10-18 05:00:00
3:30 PM,84.2,68.0,58,29.92,6.2,ENE,15.0,-,N/A,,Scattered Clouds,70,2013-10-18 05:30:00
4:00 PM,83,69,54,29.94,,East,13.8,,,,,90,2013-10-18 06:00:00
4:00 PM,82.4,69.8,66,29.92,6.2,East,13.8,-,N/A,,Scattered Clouds,90,2013-10-18 06:00:00
4:30 PM,82.4,68.0,62,29.92,6.2,SE,9.2,-,N/A,,Scattered Clouds,130,2013-10-18 06:30:00
5:00 PM,82.4,68.0,62,29.95,6.2,ESE,13.8,-,N/A,,Partly Cloudy,110,2013-10-18 07:00:00
5:30 PM,80.6,68.0,65,29.95,6.2,East,13.8,-,N/A,,Partly Cloudy,90,2013-10-18 07:30:00
6:00 PM,80,68,60,29.98,,ESE,10.4,,,,,110,2013-10-18 08:00:00
6:00 PM,80.6,68.0,65,29.98,6.2,ESE,10.4,-,N/A,,Partly Cloudy,110,2013-10-18 08:00:00
6:30 PM,78.8,68.0,69,29.98,6.2,ESE,10.4,-,N/A,,Partly Cloudy,110,2013-10-18 08:30:00
7:00 PM,78,67,60,30.00,,SE,10.4,,,,,140,2013-10-18 09:00:00
7:00 PM,78.8,66.2,65,29.98,6.2,SE,10.4,-,N/A,,Partly Cloudy,140,2013-10-18 09:00:00
7:30 PM,77.0,68.0,74,30.01,6.2,SSE,6.9,-,N/A,,Scattered Clouds,150,2013-10-18 09:30:00
8:00 PM,77.0,68.0,74,30.01,6.2,South,5.8,-,N/A,,Scattered Clouds,170,2013-10-18 10:00:00
8:30 PM,77.0,69.8,78,30.01,6.2,South,4.6,-,N/A,,Mostly Cloudy,170,2013-10-18 10:30:00
9:00 PM,76,69,73,30.03,,SSE,8.1,,,,,150,2013-10-18 11:00:00
9:00 PM,77.0,69.8,78,30.04,6.2,SSE,8.1,-,N/A,,Mostly Cloudy,150,2013-10-18 11:00:00
9:30 PM,75.2,69.8,83,30.04,6.2,SSE,6.9,-,N/A,,Mostly Cloudy,160,2013-10-18 11:30:00
10:00 PM,76,69,72,30.05,,South,6.9,,,,,180,2013-10-18 12:00:00
10:00 PM,77.0,68.0,74,30.04,6.2,South,6.9,-,N/A,,Partly Cloudy,180,2013-10-18 12:00:00
10:30 PM,75.2,68.0,78,30.04,6.2,South,5.8,-,N/A,,Partly Cloudy,170,2013-10-18 12:30:00
11:00 PM,75.2,69.8,83,30.04,6.2,South,6.9,-,N/A,,Partly Cloudy,170,2013-10-18 13:00:00
11:30 PM,75.2,68.0,78,30.04,6.2,SSE,6.9,-,N/A,,Partly Cloudy,160,2013-10-18 13:30:00